sensor_id;sensor_type;location;lat;lon;timestamp;P1;durP1;ratioP1;P2;durP2;ratioP2
58360;SDS011;44164;44.954;10.068;2022-07-29T00:00:53;3.40;;;2.00;;
58360;SDS011;44164;44.954;10.068;2022-07-29T00:03:19;2.67;;;2.15;;
58360;SDS011;44164;44.954;10.068;2022-07-29T00:05:45;2.40;;;1.95;;
58360;SDS011;44164;44.954;10.068;2022-07-29T00:08:11;2.70;;;2.22;;
58360;SDS011;44164;44.954;10.068;2022-07-29T00:10:38;2.28;;;2.08;;
58360;SDS011;44164;44.954;10.068;2022-07-29T00:13:04;2.33;;;1.83;;
58360;SDS011;44164;44.954;10.068;2022-07-29T00:15:30;4.18;;;2.15;;
58360;SDS011;44164;44.954;10.068;2022-07-29T00:17:56;2.72;;;2.13;;
58360;SDS011;44164;44.954;10.068;2022-07-29T00:20:22;3.65;;;1.90;;
58360;SDS011;44164;44.954;10.068;2022-07-29T00:22:48;2.17;;;1.92;;
58360;SDS011;44164;44.954;10.068;2022-07-29T00:25:14;2.28;;;1.75;;
58360;SDS011;44164;44.954;10.068;2022-07-29T00:27:41;2.97;;;2.13;;
58360;SDS011;44164;44.954;10.068;2022-07-29T00:30:07;3.83;;;2.15;;
58360;SDS011;44164;44.954;10.068;2022-07-29T00:32:33;3.60;;;2.00;;
58360;SDS011;44164;44.954;10.068;2022-07-29T00:34:59;3.00;;;2.25;;
58360;SDS011;44164;44.954;10.068;2022-07-29T00:37:44;2.75;;;2.30;;
58360;SDS011;44164;44.954;10.068;2022-07-29T00:40:11;2.50;;;2.08;;
58360;SDS011;44164;44.954;10.068;2022-07-29T00:42:44;2.15;;;1.83;;
58360;SDS011;44164;44.954;10.068;2022-07-29T00:45:14;3.17;;;2.50;;
58360;SDS011;44164;44.954;10.068;2022-07-29T00:47:41;2.50;;;1.97;;
58360;SDS011;44164;44.954;10.068;2022-07-29T00:50:08;2.63;;;1.90;;
58360;SDS011;44164;44.954;10.068;2022-07-29T00:52:36;2.30;;;2.10;;
58360;SDS011;44164;44.954;10.068;2022-07-29T00:55:04;2.67;;;2.00;;
58360;SDS011;44164;44.954;10.068;2022-07-29T00:59:57;2.47;;;1.77;;
58360;SDS011;44164;44.954;10.068;2022-07-29T01:02:23;2.58;;;2.05;;
58360;SDS011;44164;44.954;10.068;2022-07-29T01:04:49;2.53;;;2.10;;
58360;SDS011;44164;44.954;10.068;2022-07-29T01:07:16;3.25;;;1.80;;
58360;SDS011;44164;44.954;10.068;2022-07-29T01:09:43;2.40;;;1.80;;
58360;SDS011;44164;44.954;10.068;2022-07-29T01:12:10;2.47;;;2.00;;
58360;SDS011;44164;44.954;10.068;2022-07-29T01:14:36;2.65;;;1.95;;
58360;SDS011;44164;44.954;10.068;2022-07-29T01:22:26;2.95;;;2.08;;
58360;SDS011;44164;44.954;10.068;2022-07-29T01:27:41;2.17;;;1.65;;
58360;SDS011;44164;44.954;10.068;2022-07-29T01:30:14;2.33;;;1.90;;
58360;SDS011;44164;44.954;10.068;2022-07-29T01:32:40;3.03;;;1.95;;
58360;SDS011;44164;44.954;10.068;2022-07-29T01:40:22;2.88;;;2.15;;
58360;SDS011;44164;44.954;10.068;2022-07-29T01:42:51;2.55;;;2.08;;
58360;SDS011;44164;44.954;10.068;2022-07-29T01:45:27;2.83;;;2.10;;
58360;SDS011;44164;44.954;10.068;2022-07-29T01:48:18;2.63;;;1.95;;
58360;SDS011;44164;44.954;10.068;2022-07-29T01:50:50;2.92;;;1.90;;
58360;SDS011;44164;44.954;10.068;2022-07-29T01:53:29;2.25;;;1.63;;
58360;SDS011;44164;44.954;10.068;2022-07-29T01:55:59;3.53;;;2.15;;
58360;SDS011;44164;44.954;10.068;2022-07-29T01:58:26;2.22;;;1.58;;
58360;SDS011;44164;44.954;10.068;2022-07-29T02:00:52;2.42;;;1.92;;
58360;SDS011;44164;44.954;10.068;2022-07-29T02:03:19;2.70;;;2.20;;
58360;SDS011;44164;44.954;10.068;2022-07-29T02:05:46;4.05;;;2.20;;
58360;SDS011;44164;44.954;10.068;2022-07-29T02:08:14;2.50;;;2.00;;
58360;SDS011;44164;44.954;10.068;2022-07-29T02:10:40;2.22;;;1.88;;
58360;SDS011;44164;44.954;10.068;2022-07-29T02:13:08;2.50;;;2.00;;
58360;SDS011;44164;44.954;10.068;2022-07-29T02:15:35;2.58;;;2.00;;
58360;SDS011;44164;44.954;10.068;2022-07-29T02:18:07;2.33;;;1.60;;
58360;SDS011;44164;44.954;10.068;2022-07-29T02:20:36;2.38;;;1.98;;
58360;SDS011;44164;44.954;10.068;2022-07-29T02:23:03;2.88;;;1.92;;
58360;SDS011;44164;44.954;10.068;2022-07-29T02:25:30;2.53;;;1.90;;
58360;SDS011;44164;44.954;10.068;2022-07-29T02:27:57;2.33;;;1.83;;
58360;SDS011;44164;44.954;10.068;2022-07-29T02:30:25;2.35;;;1.88;;
58360;SDS011;44164;44.954;10.068;2022-07-29T02:32:51;3.80;;;1.92;;
58360;SDS011;44164;44.954;10.068;2022-07-29T02:35:17;2.17;;;1.60;;
58360;SDS011;44164;44.954;10.068;2022-07-29T02:37:44;2.78;;;2.30;;
58360;SDS011;44164;44.954;10.068;2022-07-29T02:40:32;2.92;;;2.35;;
58360;SDS011;44164;44.954;10.068;2022-07-29T02:43:00;2.20;;;2.00;;
58360;SDS011;44164;44.954;10.068;2022-07-29T02:45:27;2.47;;;1.88;;
58360;SDS011;44164;44.954;10.068;2022-07-29T02:47:54;2.15;;;1.70;;
58360;SDS011;44164;44.954;10.068;2022-07-29T02:50:32;2.50;;;2.00;;
58360;SDS011;44164;44.954;10.068;2022-07-29T02:53:08;2.17;;;1.70;;
58360;SDS011;44164;44.954;10.068;2022-07-29T02:55:45;2.50;;;1.98;;
58360;SDS011;44164;44.954;10.068;2022-07-29T03:01:04;3.83;;;2.22;;
58360;SDS011;44164;44.954;10.068;2022-07-29T03:03:36;3.47;;;2.35;;
58360;SDS011;44164;44.954;10.068;2022-07-29T03:08:29;2.97;;;1.80;;
58360;SDS011;44164;44.954;10.068;2022-07-29T03:10:56;2.05;;;1.55;;
58360;SDS011;44164;44.954;10.068;2022-07-29T03:13:23;2.63;;;2.00;;
58360;SDS011;44164;44.954;10.068;2022-07-29T03:15:49;2.58;;;1.75;;
58360;SDS011;44164;44.954;10.068;2022-07-29T03:18:15;2.10;;;1.70;;
58360;SDS011;44164;44.954;10.068;2022-07-29T03:20:42;2.30;;;1.83;;
58360;SDS011;44164;44.954;10.068;2022-07-29T03:23:08;2.22;;;1.77;;
58360;SDS011;44164;44.954;10.068;2022-07-29T03:25:34;2.40;;;1.73;;
58360;SDS011;44164;44.954;10.068;2022-07-29T03:28:01;2.30;;;1.98;;
58360;SDS011;44164;44.954;10.068;2022-07-29T03:30:27;2.35;;;1.73;;
58360;SDS011;44164;44.954;10.068;2022-07-29T03:32:54;2.20;;;1.67;;
58360;SDS011;44164;44.954;10.068;2022-07-29T03:35:20;2.50;;;2.05;;
58360;SDS011;44164;44.954;10.068;2022-07-29T03:37:46;2.20;;;1.55;;
58360;SDS011;44164;44.954;10.068;2022-07-29T03:40:14;3.53;;;2.25;;
58360;SDS011;44164;44.954;10.068;2022-07-29T03:42:44;2.03;;;1.50;;
58360;SDS011;44164;44.954;10.068;2022-07-29T03:45:12;2.28;;;1.75;;
58360;SDS011;44164;44.954;10.068;2022-07-29T03:47:42;2.85;;;2.05;;
58360;SDS011;44164;44.954;10.068;2022-07-29T03:50:13;2.35;;;1.90;;
58360;SDS011;44164;44.954;10.068;2022-07-29T03:55:06;2.63;;;2.05;;
58360;SDS011;44164;44.954;10.068;2022-07-29T03:57:33;2.83;;;1.80;;
58360;SDS011;44164;44.954;10.068;2022-07-29T04:00:00;2.72;;;2.00;;
58360;SDS011;44164;44.954;10.068;2022-07-29T04:02:29;2.92;;;1.65;;
58360;SDS011;44164;44.954;10.068;2022-07-29T04:04:56;2.88;;;2.20;;
58360;SDS011;44164;44.954;10.068;2022-07-29T04:07:22;2.17;;;1.80;;
58360;SDS011;44164;44.954;10.068;2022-07-29T04:09:48;2.58;;;1.88;;
58360;SDS011;44164;44.954;10.068;2022-07-29T04:12:14;2.30;;;1.80;;
58360;SDS011;44164;44.954;10.068;2022-07-29T04:14:40;2.47;;;2.00;;
58360;SDS011;44164;44.954;10.068;2022-07-29T04:17:07;2.55;;;1.70;;
58360;SDS011;44164;44.954;10.068;2022-07-29T04:19:33;2.40;;;2.03;;
58360;SDS011;44164;44.954;10.068;2022-07-29T04:21:59;2.40;;;1.95;;
58360;SDS011;44164;44.954;10.068;2022-07-29T04:24:26;3.28;;;2.15;;
58360;SDS011;44164;44.954;10.068;2022-07-29T04:26:53;2.83;;;2.00;;
58360;SDS011;44164;44.954;10.068;2022-07-29T04:29:19;2.40;;;1.70;;
58360;SDS011;44164;44.954;10.068;2022-07-29T04:31:46;2.30;;;1.95;;
58360;SDS011;44164;44.954;10.068;2022-07-29T04:34:12;2.38;;;1.80;;
58360;SDS011;44164;44.954;10.068;2022-07-29T04:36:38;1.80;;;1.40;;
58360;SDS011;44164;44.954;10.068;2022-07-29T04:39:04;3.13;;;2.30;;
58360;SDS011;44164;44.954;10.068;2022-07-29T04:41:30;2.65;;;1.80;;
58360;SDS011;44164;44.954;10.068;2022-07-29T04:43:56;2.10;;;1.77;;
58360;SDS011;44164;44.954;10.068;2022-07-29T04:46:23;1.92;;;1.42;;
58360;SDS011;44164;44.954;10.068;2022-07-29T04:48:49;2.78;;;2.00;;
58360;SDS011;44164;44.954;10.068;2022-07-29T04:51:15;2.97;;;2.25;;
58360;SDS011;44164;44.954;10.068;2022-07-29T04:53:41;2.70;;;1.50;;
58360;SDS011;44164;44.954;10.068;2022-07-29T04:56:07;2.95;;;1.80;;
58360;SDS011;44164;44.954;10.068;2022-07-29T04:58:34;2.25;;;1.70;;
58360;SDS011;44164;44.954;10.068;2022-07-29T05:01:00;2.45;;;1.98;;
58360;SDS011;44164;44.954;10.068;2022-07-29T05:03:27;2.03;;;1.60;;
58360;SDS011;44164;44.954;10.068;2022-07-29T05:05:53;3.13;;;2.20;;
58360;SDS011;44164;44.954;10.068;2022-07-29T05:08:19;2.67;;;1.67;;
58360;SDS011;44164;44.954;10.068;2022-07-29T05:10:45;2.40;;;1.70;;
58360;SDS011;44164;44.954;10.068;2022-07-29T05:13:11;2.30;;;1.90;;
58360;SDS011;44164;44.954;10.068;2022-07-29T05:15:38;2.30;;;1.90;;
58360;SDS011;44164;44.954;10.068;2022-07-29T05:18:04;2.97;;;1.88;;
58360;SDS011;44164;44.954;10.068;2022-07-29T05:20:30;2.50;;;1.60;;
58360;SDS011;44164;44.954;10.068;2022-07-29T05:22:57;14.50;;;12.90;;
58360;SDS011;44164;44.954;10.068;2022-07-29T05:25:24;14.55;;;12.30;;
58360;SDS011;44164;44.954;10.068;2022-07-29T05:27:51;12.32;;;10.88;;
58360;SDS011;44164;44.954;10.068;2022-07-29T05:30:18;14.27;;;12.98;;
58360;SDS011;44164;44.954;10.068;2022-07-29T05:32:44;15.02;;;13.02;;
58360;SDS011;44164;44.954;10.068;2022-07-29T05:35:10;16.42;;;14.13;;
58360;SDS011;44164;44.954;10.068;2022-07-29T05:37:37;16.48;;;14.88;;
58360;SDS011;44164;44.954;10.068;2022-07-29T05:40:04;20.40;;;17.40;;
58360;SDS011;44164;44.954;10.068;2022-07-29T05:42:31;15.57;;;14.02;;
58360;SDS011;44164;44.954;10.068;2022-07-29T05:44:57;17.95;;;16.13;;
58360;SDS011;44164;44.954;10.068;2022-07-29T05:47:23;17.30;;;14.65;;
58360;SDS011;44164;44.954;10.068;2022-07-29T05:49:49;15.68;;;12.93;;
58360;SDS011;44164;44.954;10.068;2022-07-29T05:52:16;22.55;;;17.35;;
58360;SDS011;44164;44.954;10.068;2022-07-29T05:54:42;17.67;;;15.95;;
58360;SDS011;44164;44.954;10.068;2022-07-29T05:57:14;16.02;;;13.63;;
58360;SDS011;44164;44.954;10.068;2022-07-29T05:59:44;18.42;;;14.68;;
58360;SDS011;44164;44.954;10.068;2022-07-29T06:02:11;16.70;;;14.52;;
58360;SDS011;44164;44.954;10.068;2022-07-29T06:04:37;19.42;;;17.52;;
58360;SDS011;44164;44.954;10.068;2022-07-29T06:07:03;17.35;;;15.55;;
58360;SDS011;44164;44.954;10.068;2022-07-29T06:09:30;17.67;;;15.82;;
58360;SDS011;44164;44.954;10.068;2022-07-29T06:11:56;16.30;;;14.63;;
58360;SDS011;44164;44.954;10.068;2022-07-29T06:14:23;17.20;;;14.40;;
58360;SDS011;44164;44.954;10.068;2022-07-29T06:16:50;20.10;;;17.50;;
58360;SDS011;44164;44.954;10.068;2022-07-29T06:19:16;17.05;;;15.27;;
58360;SDS011;44164;44.954;10.068;2022-07-29T06:21:43;19.20;;;17.20;;
58360;SDS011;44164;44.954;10.068;2022-07-29T06:24:10;16.90;;;15.40;;
58360;SDS011;44164;44.954;10.068;2022-07-29T06:26:38;20.23;;;15.57;;
58360;SDS011;44164;44.954;10.068;2022-07-29T06:29:05;21.63;;;16.95;;
58360;SDS011;44164;44.954;10.068;2022-07-29T06:31:34;18.02;;;16.23;;
58360;SDS011;44164;44.954;10.068;2022-07-29T06:34:00;19.27;;;17.15;;
58360;SDS011;44164;44.954;10.068;2022-07-29T06:36:26;19.83;;;14.90;;
58360;SDS011;44164;44.954;10.068;2022-07-29T06:38:52;15.18;;;13.55;;
58360;SDS011;44164;44.954;10.068;2022-07-29T06:41:18;16.80;;;14.80;;
58360;SDS011;44164;44.954;10.068;2022-07-29T06:43:44;15.32;;;13.45;;
58360;SDS011;44164;44.954;10.068;2022-07-29T06:46:12;15.38;;;13.75;;
58360;SDS011;44164;44.954;10.068;2022-07-29T06:48:40;17.38;;;15.63;;
58360;SDS011;44164;44.954;10.068;2022-07-29T06:51:08;16.17;;;12.35;;
58360;SDS011;44164;44.954;10.068;2022-07-29T06:53:35;17.83;;;15.93;;
58360;SDS011;44164;44.954;10.068;2022-07-29T06:56:02;15.73;;;13.95;;
58360;SDS011;44164;44.954;10.068;2022-07-29T06:58:30;15.65;;;12.25;;
58360;SDS011;44164;44.954;10.068;2022-07-29T07:01:01;13.10;;;11.80;;
58360;SDS011;44164;44.954;10.068;2022-07-29T07:03:28;9.27;;;8.00;;
58360;SDS011;44164;44.954;10.068;2022-07-29T07:05:55;8.35;;;6.15;;
58360;SDS011;44164;44.954;10.068;2022-07-29T07:08:21;7.22;;;5.15;;
58360;SDS011;44164;44.954;10.068;2022-07-29T07:10:49;6.85;;;5.13;;
58360;SDS011;44164;44.954;10.068;2022-07-29T07:13:16;5.83;;;4.33;;
58360;SDS011;44164;44.954;10.068;2022-07-29T07:15:43;4.75;;;4.18;;
58360;SDS011;44164;44.954;10.068;2022-07-29T07:18:10;4.13;;;3.50;;
58360;SDS011;44164;44.954;10.068;2022-07-29T07:20:36;4.55;;;4.10;;
58360;SDS011;44164;44.954;10.068;2022-07-29T07:23:02;7.35;;;3.33;;
58360;SDS011;44164;44.954;10.068;2022-07-29T07:25:29;4.15;;;3.70;;
58360;SDS011;44164;44.954;10.068;2022-07-29T07:27:55;5.35;;;3.88;;
58360;SDS011;44164;44.954;10.068;2022-07-29T07:30:21;6.32;;;3.83;;
58360;SDS011;44164;44.954;10.068;2022-07-29T07:32:47;5.68;;;3.42;;
58360;SDS011;44164;44.954;10.068;2022-07-29T07:35:13;4.80;;;3.53;;
58360;SDS011;44164;44.954;10.068;2022-07-29T07:37:39;3.97;;;3.40;;
58360;SDS011;44164;44.954;10.068;2022-07-29T07:40:09;4.13;;;3.22;;
58360;SDS011;44164;44.954;10.068;2022-07-29T07:42:37;6.45;;;3.50;;
58360;SDS011;44164;44.954;10.068;2022-07-29T07:45:07;4.93;;;3.28;;
58360;SDS011;44164;44.954;10.068;2022-07-29T07:47:35;4.97;;;3.00;;
58360;SDS011;44164;44.954;10.068;2022-07-29T07:50:06;4.13;;;3.15;;
58360;SDS011;44164;44.954;10.068;2022-07-29T07:52:33;7.40;;;3.65;;
58360;SDS011;44164;44.954;10.068;2022-07-29T07:54:59;4.68;;;3.20;;
58360;SDS011;44164;44.954;10.068;2022-07-29T07:57:26;4.47;;;3.17;;
58360;SDS011;44164;44.954;10.068;2022-07-29T07:59:52;4.15;;;3.13;;
58360;SDS011;44164;44.954;10.068;2022-07-29T08:02:18;4.32;;;3.00;;
58360;SDS011;44164;44.954;10.068;2022-07-29T08:04:45;3.60;;;3.10;;
58360;SDS011;44164;44.954;10.068;2022-07-29T08:07:11;3.55;;;3.25;;
58360;SDS011;44164;44.954;10.068;2022-07-29T08:09:37;3.65;;;2.95;;
58360;SDS011;44164;44.954;10.068;2022-07-29T08:12:03;3.55;;;2.90;;
58360;SDS011;44164;44.954;10.068;2022-07-29T08:16:57;3.90;;;2.95;;
58360;SDS011;44164;44.954;10.068;2022-07-29T08:19:23;3.17;;;2.85;;
58360;SDS011;44164;44.954;10.068;2022-07-29T08:21:50;4.03;;;3.25;;
58360;SDS011;44164;44.954;10.068;2022-07-29T08:24:19;6.30;;;2.90;;
58360;SDS011;44164;44.954;10.068;2022-07-29T08:27:04;3.67;;;3.28;;
58360;SDS011;44164;44.954;10.068;2022-07-29T08:29:30;3.63;;;3.15;;
58360;SDS011;44164;44.954;10.068;2022-07-29T08:31:56;3.70;;;2.50;;
58360;SDS011;44164;44.954;10.068;2022-07-29T08:34:22;4.07;;;2.83;;
58360;SDS011;44164;44.954;10.068;2022-07-29T08:36:48;3.50;;;2.72;;
58360;SDS011;44164;44.954;10.068;2022-07-29T08:39:14;3.45;;;2.80;;
58360;SDS011;44164;44.954;10.068;2022-07-29T08:41:40;3.78;;;3.03;;
58360;SDS011;44164;44.954;10.068;2022-07-29T08:44:07;4.20;;;2.60;;
58360;SDS011;44164;44.954;10.068;2022-07-29T08:46:33;4.38;;;2.92;;
58360;SDS011;44164;44.954;10.068;2022-07-29T08:48:59;3.60;;;2.88;;
58360;SDS011;44164;44.954;10.068;2022-07-29T08:51:25;3.03;;;2.70;;
58360;SDS011;44164;44.954;10.068;2022-07-29T08:53:53;3.17;;;2.50;;
58360;SDS011;44164;44.954;10.068;2022-07-29T08:56:20;3.53;;;2.47;;
58360;SDS011;44164;44.954;10.068;2022-07-29T08:58:47;3.75;;;2.63;;
58360;SDS011;44164;44.954;10.068;2022-07-29T09:01:14;3.28;;;2.95;;
58360;SDS011;44164;44.954;10.068;2022-07-29T09:03:44;3.28;;;2.65;;
58360;SDS011;44164;44.954;10.068;2022-07-29T09:06:12;3.30;;;2.60;;
58360;SDS011;44164;44.954;10.068;2022-07-29T09:08:39;3.42;;;2.80;;
58360;SDS011;44164;44.954;10.068;2022-07-29T09:11:06;3.00;;;2.70;;
58360;SDS011;44164;44.954;10.068;2022-07-29T09:13:33;3.20;;;2.60;;
58360;SDS011;44164;44.954;10.068;2022-07-29T09:16:00;5.18;;;2.63;;
58360;SDS011;44164;44.954;10.068;2022-07-29T09:18:38;3.53;;;2.70;;
58360;SDS011;44164;44.954;10.068;2022-07-29T09:21:06;7.50;;;2.53;;
58360;SDS011;44164;44.954;10.068;2022-07-29T09:24:08;2.57;;;1.90;;
58360;SDS011;44164;44.954;10.068;2022-07-29T09:26:40;4.40;;;2.72;;
58360;SDS011;44164;44.954;10.068;2022-07-29T09:29:14;3.70;;;2.15;;
58360;SDS011;44164;44.954;10.068;2022-07-29T09:31:42;3.28;;;2.55;;
58360;SDS011;44164;44.954;10.068;2022-07-29T09:34:23;4.35;;;2.58;;
58360;SDS011;44164;44.954;10.068;2022-07-29T09:36:50;2.95;;;2.30;;
58360;SDS011;44164;44.954;10.068;2022-07-29T09:41:53;3.08;;;2.40;;
58360;SDS011;44164;44.954;10.068;2022-07-29T09:44:24;3.67;;;2.35;;
58360;SDS011;44164;44.954;10.068;2022-07-29T09:46:55;3.53;;;2.70;;
58360;SDS011;44164;44.954;10.068;2022-07-29T09:49:34;3.63;;;2.75;;
58360;SDS011;44164;44.954;10.068;2022-07-29T09:54:33;2.83;;;2.40;;
58360;SDS011;44164;44.954;10.068;2022-07-29T09:57:03;3.17;;;2.20;;
58360;SDS011;44164;44.954;10.068;2022-07-29T09:59:35;3.30;;;2.70;;
58360;SDS011;44164;44.954;10.068;2022-07-29T10:02:01;2.85;;;2.30;;
58360;SDS011;44164;44.954;10.068;2022-07-29T10:04:40;3.20;;;1.90;;
58360;SDS011;44164;44.954;10.068;2022-07-29T10:07:07;3.92;;;2.10;;
58360;SDS011;44164;44.954;10.068;2022-07-29T10:09:35;2.85;;;2.05;;
58360;SDS011;44164;44.954;10.068;2022-07-29T10:12:23;3.07;;;2.40;;
58360;SDS011;44164;44.954;10.068;2022-07-29T10:14:48;3.30;;;2.78;;
58360;SDS011;44164;44.954;10.068;2022-07-29T10:17:14;2.88;;;2.22;;
58360;SDS011;44164;44.954;10.068;2022-07-29T10:19:41;3.55;;;3.00;;
58360;SDS011;44164;44.954;10.068;2022-07-29T10:22:08;2.88;;;1.98;;
58360;SDS011;44164;44.954;10.068;2022-07-29T10:24:36;2.35;;;1.95;;
58360;SDS011;44164;44.954;10.068;2022-07-29T10:27:04;3.35;;;2.15;;
58360;SDS011;44164;44.954;10.068;2022-07-29T10:29:32;2.83;;;2.22;;
58360;SDS011;44164;44.954;10.068;2022-07-29T10:32:14;3.25;;;1.90;;
58360;SDS011;44164;44.954;10.068;2022-07-29T10:37:47;3.58;;;2.08;;
58360;SDS011;44164;44.954;10.068;2022-07-29T10:40:40;2.65;;;2.10;;
58360;SDS011;44164;44.954;10.068;2022-07-29T10:43:37;3.35;;;2.40;;
58360;SDS011;44164;44.954;10.068;2022-07-29T10:46:07;2.25;;;1.85;;
58360;SDS011;44164;44.954;10.068;2022-07-29T10:48:33;2.35;;;1.95;;
58360;SDS011;44164;44.954;10.068;2022-07-29T10:51:01;3.05;;;2.40;;
58360;SDS011;44164;44.954;10.068;2022-07-29T10:53:45;2.88;;;2.22;;
58360;SDS011;44164;44.954;10.068;2022-07-29T10:56:28;2.58;;;1.90;;
58360;SDS011;44164;44.954;10.068;2022-07-29T11:01:41;3.17;;;2.00;;
58360;SDS011;44164;44.954;10.068;2022-07-29T11:04:07;3.20;;;1.83;;
58360;SDS011;44164;44.954;10.068;2022-07-29T11:09:24;3.10;;;2.30;;
58360;SDS011;44164;44.954;10.068;2022-07-29T11:11:50;3.83;;;1.90;;
58360;SDS011;44164;44.954;10.068;2022-07-29T11:14:17;2.72;;;2.03;;
58360;SDS011;44164;44.954;10.068;2022-07-29T11:17:03;2.78;;;1.85;;
58360;SDS011;44164;44.954;10.068;2022-07-29T11:19:30;2.72;;;2.00;;
58360;SDS011;44164;44.954;10.068;2022-07-29T11:21:56;2.83;;;2.00;;
58360;SDS011;44164;44.954;10.068;2022-07-29T11:24:24;3.10;;;1.90;;
58360;SDS011;44164;44.954;10.068;2022-07-29T11:29:40;2.45;;;1.88;;
58360;SDS011;44164;44.954;10.068;2022-07-29T11:32:15;4.30;;;2.08;;
58360;SDS011;44164;44.954;10.068;2022-07-29T11:34:44;3.33;;;2.20;;
58360;SDS011;44164;44.954;10.068;2022-07-29T11:39:37;3.47;;;2.22;;
58360;SDS011;44164;44.954;10.068;2022-07-29T11:47:28;4.07;;;2.00;;
58360;SDS011;44164;44.954;10.068;2022-07-29T11:52:22;3.25;;;2.10;;
58360;SDS011;44164;44.954;10.068;2022-07-29T11:54:49;2.38;;;1.70;;
58360;SDS011;44164;44.954;10.068;2022-07-29T11:57:16;3.03;;;2.05;;
58360;SDS011;44164;44.954;10.068;2022-07-29T11:59:44;2.50;;;1.88;;
58360;SDS011;44164;44.954;10.068;2022-07-29T12:02:12;4.93;;;2.20;;
58360;SDS011;44164;44.954;10.068;2022-07-29T13:00:22;5.03;;;1.77;;
58360;SDS011;44164;44.954;10.068;2022-07-29T13:02:56;2.05;;;1.45;;
58360;SDS011;44164;44.954;10.068;2022-07-29T13:05:23;3.83;;;1.80;;
58360;SDS011;44164;44.954;10.068;2022-07-29T13:07:50;3.13;;;1.80;;
58360;SDS011;44164;44.954;10.068;2022-07-29T13:10:17;3.03;;;1.70;;
58360;SDS011;44164;44.954;10.068;2022-07-29T13:15:30;3.63;;;1.75;;
58360;SDS011;44164;44.954;10.068;2022-07-29T13:17:56;3.17;;;1.65;;
58360;SDS011;44164;44.954;10.068;2022-07-29T13:20:26;2.90;;;1.73;;
58360;SDS011;44164;44.954;10.068;2022-07-29T13:22:59;4.53;;;1.60;;
58360;SDS011;44164;44.954;10.068;2022-07-29T13:25:30;2.70;;;1.60;;
58360;SDS011;44164;44.954;10.068;2022-07-29T13:27:58;3.45;;;1.80;;
58360;SDS011;44164;44.954;10.068;2022-07-29T13:30:25;3.33;;;1.50;;
58360;SDS011;44164;44.954;10.068;2022-07-29T13:32:51;2.38;;;1.40;;
58360;SDS011;44164;44.954;10.068;2022-07-29T13:35:18;3.03;;;1.60;;
58360;SDS011;44164;44.954;10.068;2022-07-29T13:37:45;2.47;;;1.65;;
58360;SDS011;44164;44.954;10.068;2022-07-29T13:40:11;3.03;;;1.55;;
58360;SDS011;44164;44.954;10.068;2022-07-29T13:42:38;2.97;;;1.70;;
58360;SDS011;44164;44.954;10.068;2022-07-29T13:45:04;2.65;;;1.45;;
58360;SDS011;44164;44.954;10.068;2022-07-29T13:47:32;2.53;;;1.55;;
58360;SDS011;44164;44.954;10.068;2022-07-29T13:49:59;2.30;;;1.73;;
58360;SDS011;44164;44.954;10.068;2022-07-29T13:52:26;2.13;;;1.67;;
58360;SDS011;44164;44.954;10.068;2022-07-29T13:54:52;2.50;;;1.75;;
58360;SDS011;44164;44.954;10.068;2022-07-29T13:57:18;2.30;;;1.80;;
58360;SDS011;44164;44.954;10.068;2022-07-29T13:59:44;3.15;;;1.50;;
58360;SDS011;44164;44.954;10.068;2022-07-29T14:02:11;2.30;;;1.70;;
58360;SDS011;44164;44.954;10.068;2022-07-29T14:04:37;2.87;;;1.90;;
58360;SDS011;44164;44.954;10.068;2022-07-29T14:07:04;2.90;;;1.60;;
58360;SDS011;44164;44.954;10.068;2022-07-29T14:09:30;3.45;;;1.83;;
58360;SDS011;44164;44.954;10.068;2022-07-29T14:11:56;2.25;;;1.55;;
58360;SDS011;44164;44.954;10.068;2022-07-29T14:14:22;2.38;;;1.65;;
58360;SDS011;44164;44.954;10.068;2022-07-29T14:16:48;2.60;;;1.60;;
58360;SDS011;44164;44.954;10.068;2022-07-29T14:19:15;3.25;;;2.15;;
58360;SDS011;44164;44.954;10.068;2022-07-29T14:21:41;2.15;;;1.40;;
58360;SDS011;44164;44.954;10.068;2022-07-29T14:24:07;2.30;;;1.50;;
58360;SDS011;44164;44.954;10.068;2022-07-29T14:26:33;2.35;;;1.50;;
58360;SDS011;44164;44.954;10.068;2022-07-29T14:28:59;2.30;;;1.60;;
58360;SDS011;44164;44.954;10.068;2022-07-29T14:31:25;3.58;;;1.73;;
58360;SDS011;44164;44.954;10.068;2022-07-29T14:33:51;2.83;;;1.67;;
58360;SDS011;44164;44.954;10.068;2022-07-29T14:36:17;2.40;;;1.60;;
58360;SDS011;44164;44.954;10.068;2022-07-29T14:38:43;2.67;;;1.55;;
58360;SDS011;44164;44.954;10.068;2022-07-29T14:41:10;2.22;;;1.60;;
58360;SDS011;44164;44.954;10.068;2022-07-29T14:43:36;4.60;;;1.75;;
58360;SDS011;44164;44.954;10.068;2022-07-29T14:46:02;2.92;;;1.67;;
58360;SDS011;44164;44.954;10.068;2022-07-29T14:48:28;2.35;;;1.25;;
58360;SDS011;44164;44.954;10.068;2022-07-29T14:50:54;2.92;;;1.83;;
58360;SDS011;44164;44.954;10.068;2022-07-29T14:53:22;2.47;;;1.57;;
58360;SDS011;44164;44.954;10.068;2022-07-29T14:55:48;2.83;;;1.55;;
58360;SDS011;44164;44.954;10.068;2022-07-29T14:58:14;1.92;;;1.23;;
58360;SDS011;44164;44.954;10.068;2022-07-29T15:00:40;3.53;;;1.77;;
58360;SDS011;44164;44.954;10.068;2022-07-29T15:03:07;2.10;;;1.45;;
58360;SDS011;44164;44.954;10.068;2022-07-29T15:05:35;2.30;;;1.40;;
58360;SDS011;44164;44.954;10.068;2022-07-29T15:08:02;1.95;;;1.38;;
58360;SDS011;44164;44.954;10.068;2022-07-29T15:10:28;2.30;;;1.60;;
58360;SDS011;44164;44.954;10.068;2022-07-29T15:12:55;3.47;;;1.48;;
58360;SDS011;44164;44.954;10.068;2022-07-29T15:15:21;3.03;;;1.40;;
58360;SDS011;44164;44.954;10.068;2022-07-29T15:17:47;2.83;;;1.58;;
58360;SDS011;44164;44.954;10.068;2022-07-29T15:20:13;2.60;;;1.40;;
58360;SDS011;44164;44.954;10.068;2022-07-29T15:22:40;2.95;;;1.45;;
58360;SDS011;44164;44.954;10.068;2022-07-29T15:25:07;2.55;;;1.58;;
58360;SDS011;44164;44.954;10.068;2022-07-29T15:27:34;2.40;;;1.80;;
58360;SDS011;44164;44.954;10.068;2022-07-29T15:30:00;4.05;;;1.70;;
58360;SDS011;44164;44.954;10.068;2022-07-29T15:32:26;4.13;;;1.60;;
58360;SDS011;44164;44.954;10.068;2022-07-29T15:34:52;2.88;;;1.35;;
58360;SDS011;44164;44.954;10.068;2022-07-29T15:37:18;2.03;;;1.30;;
58360;SDS011;44164;44.954;10.068;2022-07-29T15:39:45;1.98;;;1.52;;
58360;SDS011;44164;44.954;10.068;2022-07-29T15:42:11;3.45;;;1.95;;
58360;SDS011;44164;44.954;10.068;2022-07-29T15:44:37;3.13;;;1.73;;
58360;SDS011;44164;44.954;10.068;2022-07-29T15:47:03;2.97;;;1.40;;
58360;SDS011;44164;44.954;10.068;2022-07-29T15:49:31;3.65;;;1.30;;
58360;SDS011;44164;44.954;10.068;2022-07-29T15:54:25;2.25;;;1.48;;
58360;SDS011;44164;44.954;10.068;2022-07-29T15:56:52;2.30;;;1.45;;
58360;SDS011;44164;44.954;10.068;2022-07-29T15:59:19;2.75;;;2.00;;
58360;SDS011;44164;44.954;10.068;2022-07-29T16:01:46;3.10;;;1.67;;
58360;SDS011;44164;44.954;10.068;2022-07-29T16:04:12;2.47;;;1.55;;
58360;SDS011;44164;44.954;10.068;2022-07-29T16:06:38;2.85;;;1.80;;
58360;SDS011;44164;44.954;10.068;2022-07-29T16:09:04;3.22;;;1.98;;
58360;SDS011;44164;44.954;10.068;2022-07-29T16:11:30;3.25;;;1.67;;
58360;SDS011;44164;44.954;10.068;2022-07-29T16:13:57;2.95;;;1.70;;
58360;SDS011;44164;44.954;10.068;2022-07-29T16:16:23;3.70;;;1.70;;
58360;SDS011;44164;44.954;10.068;2022-07-29T16:18:50;3.88;;;1.85;;
58360;SDS011;44164;44.954;10.068;2022-07-29T16:21:16;3.00;;;1.60;;
58360;SDS011;44164;44.954;10.068;2022-07-29T16:23:42;3.08;;;1.95;;
58360;SDS011;44164;44.954;10.068;2022-07-29T16:26:08;3.95;;;2.13;;
58360;SDS011;44164;44.954;10.068;2022-07-29T16:28:34;3.25;;;1.80;;